Time;durP1;ratioP1;P1;durP2;ratioP2;P2;SDS_P1;SDS_P2;PMS_P1;PMS_P2;Temp;Humidity;BMP_temperature;BMP_pressure;BME280_temperature;BME280_humidity;BME280_pressure;Samples;Min_cycle;Max_cycle;Signal;HPM_P1;HPM_P2
2022/11/07 00:00:37;;;;;;;19.98;3.10;;;10.80;99.90;;;;;;5103827;28;20131;-63
2022/11/07 00:03:03;;;;;;;30.95;5.55;;;10.90;99.90;;;;;;5091355;28;20054;-63
2022/11/07 00:05:30;;;;;;;20.63;4.53;;;10.80;99.90;;;;;;5091375;28;20519;-61
2022/11/07 00:07:57;;;;;;;33.47;5.32;;;10.80;99.90;;;;;;5090277;28;20058;-61
2022/11/07 00:10:24;;;;;;;35.75;4.07;;;10.90;99.90;;;;;;5088209;28;20044;-62
2022/11/07 00:12:50;;;;;;;32.47;6.05;;;10.90;99.90;;;;;;5090757;28;20130;-61
2022/11/07 00:15:17;;;;;;;29.75;5.07;;;10.90;99.90;;;;;;5091293;28;20058;-62
2022/11/07 00:17:44;;;;;;;28.75;5.00;;;10.90;99.90;;;;;;5090032;28;20427;-62
2022/11/07 00:20:11;;;;;;;24.42;4.15;;;10.90;99.90;;;;;;5090894;28;20048;-62
2022/11/07 00:22:38;;;;;;;37.30;7.30;;;11.00;99.90;;;;;;5090870;28;20090;-62
2022/11/07 00:25:05;;;;;;;30.23;4.03;;;11.00;99.90;;;;;;5089690;28;20144;-62
2022/11/07 00:27:32;;;;;;;18.30;4.45;;;11.00;99.90;;;;;;5091367;28;20402;-62
2022/11/07 00:29:59;;;;;;;32.92;3.75;;;10.90;99.90;;;;;;5091029;28;20685;-62
2022/11/07 00:32:25;;;;;;;27.45;5.30;;;10.90;99.90;;;;;;5090674;28;20048;-62
2022/11/07 00:34:52;;;;;;;34.08;4.85;;;10.90;99.90;;;;;;5090246;28;20073;-62
2022/11/07 00:37:21;;;;;;;35.97;5.97;;;11.00;99.90;;;;;;5089218;28;20069;-62
2022/11/07 00:39:48;;;;;;;27.95;6.22;;;11.00;99.90;;;;;;5090994;28;20060;-61
2022/11/07 00:42:15;;;;;;;26.30;4.03;;;11.00;99.90;;;;;;5090572;28;20047;-61
2022/11/07 00:44:41;;;;;;;33.13;6.20;;;11.00;99.90;;;;;;5090726;28;20083;-61
2022/11/07 00:47:08;;;;;;;28.80;5.25;;;11.00;99.90;;;;;;5089389;28;20075;-61
2022/11/07 00:49:35;;;;;;;26.00;3.97;;;11.10;99.90;;;;;;5089630;28;20044;-62
2022/11/07 00:52:02;;;;;;;28.60;5.30;;;11.10;99.90;;;;;;5090152;28;20048;-60
2022/11/07 00:54:29;;;;;;;26.00;3.80;;;11.10;99.90;;;;;;5090376;28;20139;-62
2022/11/07 00:56:55;;;;;;;24.88;4.07;;;11.20;99.90;;;;;;5090710;28;20487;-62
2022/11/07 00:59:22;;;;;;;25.65;3.53;;;11.20;99.90;;;;;;5090088;28;20040;-62
2022/11/07 01:01:49;;;;;;;19.58;3.47;;;11.20;99.90;;;;;;5089666;28;20052;-61
2022/11/07 01:07:01;;;;;;;26.20;4.15;;;11.30;99.90;;;;;;5089413;28;20043;-62
2022/11/07 01:09:28;;;;;;;19.45;3.55;;;11.30;99.90;;;;;;5090439;28;20054;-62
2022/11/07 01:11:54;;;;;;;23.67;5.30;;;11.30;99.90;;;;;;5090933;28;20054;-61
2022/11/07 01:14:21;;;;;;;27.50;4.25;;;11.40;99.90;;;;;;5089497;28;20411;-62
2022/11/07 01:16:48;;;;;;;20.02;3.40;;;11.40;99.90;;;;;;5089239;28;20048;-62
2022/11/07 01:19:15;;;;;;;27.73;4.32;;;11.40;99.90;;;;;;5089512;28;20047;-62
2022/11/07 01:21:42;;;;;;;24.55;3.85;;;11.40;99.90;;;;;;5090522;28;20048;-61
2022/11/07 01:24:10;;;;;;;29.30;3.90;;;11.40;99.90;;;;;;5054838;28;20570;-62
2022/11/07 01:26:37;;;;;;;20.77;4.65;;;11.50;99.90;;;;;;5089118;28;20131;-61
2022/11/07 01:29:04;;;;;;;30.02;6.20;;;11.50;99.90;;;;;;5088420;28;20046;-62
2022/11/07 01:31:30;;;;;;;28.33;4.65;;;11.50;99.90;;;;;;5089859;28;20040;-62
2022/11/07 01:33:58;;;;;;;20.70;3.88;;;11.50;99.90;;;;;;5092157;28;20104;-62
2022/11/07 01:36:25;;;;;;;24.38;5.50;;;11.50;99.90;;;;;;5093657;28;20249;-62
2022/11/07 01:38:52;;;;;;;22.42;4.95;;;11.50;99.90;;;;;;5093130;28;20104;-62
2022/11/07 01:41:23;;;;;;;26.38;4.10;;;11.50;99.90;;;;;;5089174;28;20048;-62
2022/11/07 01:43:52;;;;;;;36.72;6.32;;;11.50;99.90;;;;;;5090121;28;20904;-62
2022/11/07 01:46:20;;;;;;;20.10;4.22;;;11.50;99.90;;;;;;5088457;28;20410;-63
2022/11/07 01:48:59;;;;;;;29.77;5.15;;;11.50;99.90;;;;;;5089383;28;20135;-62
2022/11/07 01:51:26;;;;;;;28.33;4.88;;;11.50;99.90;;;;;;5085759;28;20063;-62
2022/11/07 01:53:57;;;;;;;32.17;5.20;;;11.50;99.90;;;;;;4877065;27;10001208;-62
2022/11/07 01:56:25;;;;;;;25.15;4.03;;;11.50;99.90;;;;;;5088576;28;20246;-62
2022/11/07 01:58:52;;;;;;;25.50;4.18;;;11.50;99.90;;;;;;5088161;28;20051;-62
2022/11/07 02:01:18;;;;;;;25.10;5.35;;;11.50;99.90;;;;;;5071078;28;20040;-61
2022/11/07 02:03:45;;;;;;;27.20;5.20;;;11.60;99.90;;;;;;5088229;28;20146;-62
2022/11/07 02:06:25;;;;;;;24.10;4.68;;;11.60;99.90;;;;;;5070645;28;20406;-62
2022/11/07 02:08:52;;;;;;;22.63;4.38;;;11.60;99.90;;;;;;5088334;28;20048;-62
2022/11/07 02:11:19;;;;;;;20.15;3.97;;;11.60;99.90;;;;;;5087164;28;20039;-62
2022/11/07 02:13:46;;;;;;;38.00;5.18;;;11.60;99.90;;;;;;5089290;28;20473;-62
2022/11/07 02:16:13;;;;;;;30.17;6.10;;;11.60;99.90;;;;;;5070564;28;20486;-62
2022/11/07 02:18:40;;;;;;;23.20;4.13;;;11.60;99.90;;;;;;5089372;28;20275;-61
2022/11/07 02:21:34;;;;;;;28.33;4.22;;;11.70;99.90;;;;;;5087119;28;20414;-62
2022/11/07 02:24:07;;;;;;;24.67;3.67;;;11.70;99.90;;;;;;5087382;28;20080;-62
2022/11/07 02:26:35;;;;;;;13.23;3.10;;;11.70;99.90;;;;;;5088586;28;20139;-62
2022/11/07 02:29:04;;;;;;;20.58;3.60;;;11.70;99.90;;;;;;5087755;28;20074;-62
2022/11/07 02:31:31;;;;;;;28.13;4.82;;;11.70;99.90;;;;;;5071152;28;20066;-62
2022/11/07 02:33:57;;;;;;;19.23;3.75;;;11.70;99.90;;;;;;5088649;28;20062;-61
2022/11/07 02:36:24;;;;;;;18.40;3.08;;;11.70;99.90;;;;;;5086821;28;20048;-61
2022/11/07 02:38:56;;;;;;;26.70;3.50;;;11.70;99.90;;;;;;5087489;28;20455;-62
2022/11/07 02:41:29;;;;;;;18.52;4.03;;;11.80;99.90;;;;;;5086818;28;20414;-61
2022/11/07 02:43:57;;;;;;;27.70;3.35;;;11.80;99.90;;;;;;5067126;28;20542;-62
2022/11/07 02:46:25;;;;;;;24.73;3.63;;;11.70;99.90;;;;;;5058325;28;20044;-61
2022/11/07 02:48:56;;;;;;;25.42;4.97;;;11.70;99.90;;;;;;5087282;28;20047;-62
2022/11/07 02:51:23;;;;;;;21.77;3.10;;;11.70;99.90;;;;;;5087933;28;20561;-62
2022/11/07 02:53:50;;;;;;;29.23;4.22;;;11.80;99.90;;;;;;5088791;28;20063;-62
2022/11/07 02:56:17;;;;;;;29.33;6.28;;;11.70;99.90;;;;;;5088104;28;20054;-62
2022/11/07 02:58:44;;;;;;;32.72;5.65;;;11.80;99.90;;;;;;5088227;28;20055;-62
2022/11/07 03:01:11;;;;;;;20.70;3.45;;;11.80;99.90;;;;;;5086843;28;20063;-62
2022/11/07 03:03:42;;;;;;;26.10;5.43;;;11.80;99.90;;;;;;5088372;28;20051;-62
2022/11/07 03:06:10;;;;;;;18.75;4.03;;;11.80;99.90;;;;;;5070718;28;20048;-62
2022/11/07 03:08:37;;;;;;;25.10;5.07;;;11.80;99.90;;;;;;5086834;28;20040;-61
2022/11/07 03:11:04;;;;;;;20.42;3.38;;;11.80;99.90;;;;;;5088241;28;20513;-62
2022/11/07 03:13:31;;;;;;;15.95;3.78;;;11.80;99.90;;;;;;5087907;28;20569;-61
2022/11/07 03:15:58;;;;;;;33.42;4.72;;;11.70;99.90;;;;;;5088426;28;20281;-62
2022/11/07 03:18:24;;;;;;;22.05;4.10;;;11.80;99.90;;;;;;5088004;28;20503;-62
2022/11/07 03:20:51;;;;;;;18.30;3.88;;;11.70;99.90;;;;;;5087060;28;20517;-61
2022/11/07 03:23:18;;;;;;;22.98;3.03;;;11.70;99.90;;;;;;5087775;28;20040;-61
2022/11/07 03:25:45;;;;;;;17.13;3.20;;;11.70;99.90;;;;;;5088410;28;20083;-62
2022/11/07 03:28:11;;;;;;;24.17;4.10;;;11.70;99.90;;;;;;5088079;28;20040;-62
2022/11/07 03:30:38;;;;;;;19.55;3.58;;;11.70;99.90;;;;;;5088657;28;20051;-61
2022/11/07 03:33:05;;;;;;;27.58;5.68;;;11.70;99.90;;;;;;5087426;28;20043;-62
2022/11/07 03:35:31;;;;;;;28.77;7.07;;;11.80;99.90;;;;;;5088143;28;20055;-61
2022/11/07 03:37:58;;;;;;;22.08;3.40;;;11.70;99.90;;;;;;5087667;28;20051;-62
2022/11/07 03:40:25;;;;;;;19.85;3.53;;;11.70;99.90;;;;;;5088119;28;20525;-61
2022/11/07 03:42:52;;;;;;;21.88;3.38;;;11.70;99.90;;;;;;5087577;28;20066;-62
2022/11/07 03:45:18;;;;;;;19.73;4.47;;;11.70;99.90;;;;;;5087689;28;20124;-62
2022/11/07 03:47:45;;;;;;;26.50;4.32;;;11.70;99.90;;;;;;5088394;28;20044;-62
2022/11/07 03:50:14;;;;;;;29.50;4.13;;;11.70;99.90;;;;;;5087882;28;20151;-62
2022/11/07 03:52:41;;;;;;;15.98;3.80;;;11.80;99.90;;;;;;5088217;28;20083;-61
2022/11/07 03:55:09;;;;;;;27.33;4.15;;;11.80;99.90;;;;;;5088365;28;20211;-61
2022/11/07 03:57:36;;;;;;;16.85;3.10;;;11.80;99.90;;;;;;5089458;28;20047;-61
2022/11/07 04:00:04;;;;;;;17.70;3.20;;;11.80;99.90;;;;;;5087427;28;20048;-61
2022/11/07 04:02:30;;;;;;;23.80;3.75;;;11.80;99.90;;;;;;5088842;28;20040;-61
2022/11/07 04:04:57;;;;;;;23.55;5.35;;;11.80;99.90;;;;;;5075052;28;20053;-61
2022/11/07 04:07:24;;;;;;;26.48;4.07;;;11.80;99.90;;;;;;5085502;28;20251;-63
2022/11/07 04:09:51;;;;;;;22.80;3.50;;;11.80;99.90;;;;;;5088481;28;20126;-63
2022/11/07 04:17:48;;;;;;;27.88;5.13;;;11.80;99.90;;;;;;5091337;28;20051;-62
2022/11/07 04:20:15;;;;;;;21.60;4.15;;;11.80;99.90;;;;;;5090706;28;20044;-62
2022/11/07 04:22:41;;;;;;;32.08;6.50;;;11.90;99.90;;;;;;5090371;28;20097;-62
2022/11/07 04:25:09;;;;;;;41.85;6.03;;;11.90;99.90;;;;;;5090448;28;20517;-62
2022/11/07 04:27:41;;;;;;;29.98;6.05;;;11.90;99.90;;;;;;5091631;28;20380;-62
2022/11/07 04:30:21;;;;;;;31.17;4.75;;;11.90;99.90;;;;;;5090655;28;20090;-62
2022/11/07 04:32:52;;;;;;;36.13;5.80;;;11.90;99.90;;;;;;5090566;28;20066;-62
2022/11/07 04:35:20;;;;;;;23.58;4.47;;;11.90;99.90;;;;;;5090040;28;20426;-62
2022/11/07 04:37:47;;;;;;;27.10;4.68;;;11.90;99.90;;;;;;5089768;28;20464;-61
2022/11/07 04:40:14;;;;;;;32.30;4.95;;;11.90;99.90;;;;;;5090345;28;20519;-62
2022/11/07 04:42:41;;;;;;;39.40;7.28;;;11.90;99.90;;;;;;5090795;28;20044;-62
2022/11/07 04:45:09;;;;;;;31.63;5.68;;;12.00;99.90;;;;;;5088879;28;20090;-62
2022/11/07 04:47:35;;;;;;;31.63;5.00;;;11.90;99.90;;;;;;5090590;28;20050;-62
2022/11/07 04:50:08;;;;;;;29.08;5.57;;;12.00;99.90;;;;;;5090205;28;20439;-62
2022/11/07 04:52:34;;;;;;;24.05;5.10;;;12.00;99.90;;;;;;5073036;28;20044;-62
2022/11/07 04:55:01;;;;;;;20.27;3.92;;;12.00;99.90;;;;;;5090266;28;20265;-62
2022/11/07 04:57:28;;;;;;;23.33;5.97;;;12.00;99.90;;;;;;5090560;28;20071;-62
2022/11/07 04:59:55;;;;;;;27.98;4.60;;;12.10;99.90;;;;;;5090619;28;20044;-61
2022/11/07 05:02:23;;;;;;;25.27;4.63;;;12.10;99.90;;;;;;5088990;28;20384;-62
2022/11/07 05:04:51;;;;;;;30.95;5.50;;;12.10;99.90;;;;;;5090767;28;20461;-61
2022/11/07 05:07:18;;;;;;;23.48;4.47;;;12.10;99.90;;;;;;5088784;28;20055;-62
2022/11/07 05:09:45;;;;;;;32.13;4.15;;;12.10;99.90;;;;;;5089952;28;20044;-62
2022/11/07 05:12:12;;;;;;;24.05;4.35;;;12.10;99.90;;;;;;5091768;28;20056;-60
2022/11/07 05:14:38;;;;;;;23.90;4.00;;;12.10;99.90;;;;;;5093400;28;20050;-62
2022/11/07 05:17:05;;;;;;;30.35;4.68;;;12.20;99.90;;;;;;5095613;28;20051;-62
2022/11/07 05:19:32;;;;;;;26.10;4.45;;;12.20;99.90;;;;;;5097329;28;20322;-62
2022/11/07 05:24:44;;;;;;;22.92;4.07;;;12.20;99.90;;;;;;5097543;28;20077;-62
2022/11/07 05:27:17;;;;;;;27.83;4.88;;;12.30;99.90;;;;;;5096676;28;20103;-62
2022/11/07 05:29:44;;;;;;;24.10;5.38;;;12.30;99.90;;;;;;5096288;28;20136;-61
2022/11/07 05:32:11;;;;;;;20.73;4.43;;;12.30;99.90;;;;;;5096419;28;20036;-62
2022/11/07 05:34:38;;;;;;;32.97;4.50;;;12.30;99.90;;;;;;5096242;28;20047;-62
2022/11/07 05:37:10;;;;;;;30.88;4.32;;;12.30;99.90;;;;;;5094565;28;20129;-61
2022/11/07 05:39:37;;;;;;;24.70;4.43;;;12.30;99.90;;;;;;5092960;28;20052;-61
2022/11/07 05:42:04;;;;;;;29.73;4.13;;;12.30;99.90;;;;;;5089698;28;20078;-61
2022/11/07 05:44:30;;;;;;;26.85;5.05;;;12.30;99.90;;;;;;5089161;28;20517;-62
2022/11/07 05:46:57;;;;;;;23.95;4.05;;;12.30;99.90;;;;;;5089217;28;20436;-62
2022/11/07 05:49:24;;;;;;;28.63;4.78;;;12.30;99.90;;;;;;5055192;28;20032;-62
2022/11/07 05:51:51;;;;;;;30.10;4.07;;;12.30;99.90;;;;;;5088831;28;20051;-62
2022/11/07 05:54:18;;;;;;;22.70;4.22;;;12.30;99.90;;;;;;5089653;28;20131;-62
2022/11/07 05:56:45;;;;;;;28.27;6.45;;;12.30;99.90;;;;;;5089973;28;20098;-62
2022/11/07 05:59:12;;;;;;;21.23;4.03;;;12.30;99.90;;;;;;5089156;28;20290;-62
2022/11/07 06:01:39;;;;;;;20.33;4.28;;;12.30;99.90;;;;;;5089081;28;20052;-62
2022/11/07 06:04:06;;;;;;;24.98;4.75;;;12.30;99.90;;;;;;5089099;28;20089;-62
2022/11/07 06:06:33;;;;;;;25.65;4.30;;;12.20;99.90;;;;;;5069191;28;20063;-61
2022/11/07 06:09:00;;;;;;;29.38;5.85;;;12.30;99.90;;;;;;5084115;28;20048;-62
2022/11/07 06:11:27;;;;;;;32.50;6.25;;;12.30;99.90;;;;;;5089429;28;20044;-62
2022/11/07 06:13:53;;;;;;;22.73;4.15;;;12.30;99.90;;;;;;5089552;28;20044;-62
2022/11/07 06:16:20;;;;;;;23.90;3.88;;;12.30;99.90;;;;;;5088936;28;20415;-61
2022/11/07 06:18:47;;;;;;;28.80;4.82;;;12.30;99.90;;;;;;5088836;28;20052;-62
2022/11/07 06:21:15;;;;;;;31.58;4.57;;;12.20;99.90;;;;;;5087611;28;20044;-62
2022/11/07 06:23:42;;;;;;;20.25;3.85;;;12.20;99.90;;;;;;5089292;28;20072;-62
2022/11/07 06:26:12;;;;;;;16.75;3.45;;;12.20;99.90;;;;;;5089307;28;20059;-62
2022/11/07 06:28:39;;;;;;;24.17;3.63;;;12.20;99.90;;;;;;5088647;28;20072;-62
2022/11/07 06:31:05;;;;;;;23.00;4.15;;;12.20;99.90;;;;;;5088620;28;20040;-62
2022/11/07 06:33:32;;;;;;;27.30;4.38;;;12.20;99.90;;;;;;5088460;28;20094;-61
2022/11/07 06:36:09;;;;;;;23.52;3.75;;;12.20;99.90;;;;;;5087045;28;20145;-61
2022/11/07 06:38:37;;;;;;;36.58;5.45;;;12.20;99.90;;;;;;5087190;28;20048;-61
2022/11/07 06:41:08;;;;;;;33.30;5.78;;;12.20;99.90;;;;;;5088166;28;20048;-61
2022/11/07 06:43:35;;;;;;;17.38;3.35;;;12.20;99.90;;;;;;5088441;28;20131;-63
2022/11/07 06:46:07;;;;;;;23.38;4.18;;;12.10;99.90;;;;;;5088094;28;20486;-62
2022/11/07 06:48:34;;;;;;;28.17;5.50;;;12.20;99.90;;;;;;5087448;28;20044;-61
2022/11/07 06:51:01;;;;;;;29.48;4.75;;;12.10;99.90;;;;;;5088271;28;20501;-62
2022/11/07 06:53:28;;;;;;;27.77;5.50;;;12.10;99.90;;;;;;5070866;28;20040;-62
2022/11/07 06:55:55;;;;;;;21.92;4.10;;;12.10;99.90;;;;;;5086755;28;20060;-62
2022/11/07 06:58:22;;;;;;;33.38;4.03;;;12.10;99.90;;;;;;5087345;28;20533;-61
2022/11/07 07:00:49;;;;;;;25.52;4.32;;;12.20;99.90;;;;;;5088198;28;20051;-62
2022/11/07 07:03:16;;;;;;;26.95;4.78;;;12.20;99.90;;;;;;5088176;28;20064;-61
2022/11/07 07:05:43;;;;;;;23.77;4.70;;;12.20;99.90;;;;;;5087790;28;20431;-62
2022/11/07 07:08:11;;;;;;;29.48;5.85;;;12.20;99.90;;;;;;5087816;28;20610;-63
2022/11/07 07:10:39;;;;;;;35.15;5.18;;;12.30;99.90;;;;;;5088169;28;20435;-62
2022/11/07 07:13:06;;;;;;;32.53;5.00;;;12.30;99.90;;;;;;5086585;28;20051;-61
2022/11/07 07:15:33;;;;;;;26.17;6.32;;;12.30;99.90;;;;;;5085214;28;20066;-61
2022/11/07 07:18:16;;;;;;;44.58;8.38;;;12.40;99.90;;;;;;5066020;28;20050;-61
2022/11/07 07:20:42;;;;;;;29.10;6.78;;;12.40;99.90;;;;;;5086259;28;20052;-62
2022/11/07 07:23:09;;;;;;;26.00;5.32;;;12.40;99.90;;;;;;5087749;28;20521;-61
2022/11/07 07:25:36;;;;;;;29.95;4.75;;;12.50;99.90;;;;;;5061290;28;20337;-61
2022/11/07 07:28:03;;;;;;;27.50;4.78;;;12.50;99.90;;;;;;5087804;28;20573;-61
2022/11/07 07:30:30;;;;;;;22.67;5.00;;;12.60;99.90;;;;;;5087148;28;20083;-61
2022/11/07 07:32:56;;;;;;;30.52;6.30;;;12.60;99.90;;;;;;5084296;28;20047;-61
2022/11/07 07:35:23;;;;;;;24.65;4.25;;;12.70;99.90;;;;;;5087039;28;20054;-60
2022/11/07 07:37:53;;;;;;;21.42;4.10;;;12.70;99.90;;;;;;5083017;28;20437;-61
2022/11/07 07:40:20;;;;;;;44.45;5.35;;;12.80;99.90;;;;;;5086613;28;20059;-61
2022/11/07 07:42:47;;;;;;;30.05;5.47;;;12.80;99.90;;;;;;5087152;28;20080;-61
2022/11/07 07:45:14;;;;;;;26.58;4.47;;;12.90;99.90;;;;;;5090838;28;20040;-61
2022/11/07 07:47:41;;;;;;;26.38;6.03;;;12.90;99.90;;;;;;5089907;28;20131;-61
2022/11/07 07:50:09;;;;;;;25.27;4.68;;;13.00;99.90;;;;;;5089856;28;20143;-61
2022/11/07 07:52:36;;;;;;;20.67;4.10;;;13.00;99.90;;;;;;5089538;28;20109;-61
2022/11/07 07:55:03;;;;;;;23.55;4.53;;;13.00;99.90;;;;;;5087464;28;20040;-61
2022/11/07 07:57:30;;;;;;;25.08;4.35;;;13.00;99.90;;;;;;5088968;28;20055;-62
2022/11/07 07:59:56;;;;;;;23.77;4.15;;;13.10;99.90;;;;;;5088447;28;20155;-62
2022/11/07 08:02:23;;;;;;;27.13;3.92;;;13.10;99.90;;;;;;5088158;28;20054;-62
2022/11/07 08:04:50;;;;;;;21.15;3.70;;;13.10;99.90;;;;;;5089404;28;20044;-62
2022/11/07 08:07:17;;;;;;;20.75;3.95;;;13.10;99.90;;;;;;5089668;28;20044;-61
2022/11/07 08:09:44;;;;;;;22.73;4.72;;;13.20;99.90;;;;;;5089471;28;20048;-62
2022/11/07 08:12:11;;;;;;;25.25;4.25;;;13.20;99.90;;;;;;5089361;28;20143;-62
2022/11/07 08:14:38;;;;;;;26.08;5.00;;;13.20;99.90;;;;;;5090219;28;20067;-62
2022/11/07 08:17:05;;;;;;;24.83;3.97;;;13.20;99.90;;;;;;5091021;28;20482;-63
2022/11/07 08:19:32;;;;;;;28.60;4.13;;;13.20;99.90;;;;;;5091132;28;20295;-62
2022/11/07 08:21:59;;;;;;;27.88;4.15;;;13.30;99.90;;;;;;5090339;28;20064;-60
2022/11/07 08:24:26;;;;;;;28.02;4.43;;;13.30;99.90;;;;;;5089571;28;20048;-60
2022/11/07 08:26:53;;;;;;;20.98;3.58;;;13.30;99.90;;;;;;5091293;28;20188;-60
2022/11/07 08:29:20;;;;;;;19.50;4.03;;;13.30;99.90;;;;;;5090819;28;20079;-60
2022/11/07 08:31:49;;;;;;;22.48;3.88;;;13.30;99.90;;;;;;5090007;28;20060;-60
2022/11/07 08:34:17;;;;;;;25.55;4.05;;;13.40;99.90;;;;;;5090247;28;20514;-60
2022/11/07 08:36:44;;;;;;;25.85;4.50;;;13.40;99.90;;;;;;5091099;28;20048;-60
2022/11/07 08:39:10;;;;;;;23.92;3.60;;;13.40;99.90;;;;;;5091256;28;20047;-60
2022/11/07 08:41:37;;;;;;;27.75;4.72;;;13.40;99.90;;;;;;5089793;28;20495;-60
2022/11/07 08:44:04;;;;;;;17.42;4.15;;;13.40;99.90;;;;;;5090632;28;20052;-60
2022/11/07 08:46:31;;;;;;;24.13;4.57;;;13.40;99.90;;;;;;5073144;28;20076;-59
2022/11/07 08:48:58;;;;;;;23.10;5.97;;;13.40;99.90;;;;;;5091071;28;20077;-61
2022/11/07 08:51:25;;;;;;;19.55;4.38;;;13.50;99.90;;;;;;5090529;28;20143;-61
2022/11/07 08:53:52;;;;;;;22.67;3.75;;;13.50;99.90;;;;;;5090094;28;20127;-61
2022/11/07 08:56:18;;;;;;;18.30;3.95;;;13.50;99.90;;;;;;5068492;28;20509;-60
2022/11/07 08:58:45;;;;;;;23.30;3.85;;;13.40;99.90;;;;;;5077850;28;20470;-60
2022/11/07 09:01:12;;;;;;;20.42;3.22;;;13.50;99.90;;;;;;5088490;28;20509;-59
2022/11/07 09:03:39;;;;;;;23.98;3.83;;;13.50;99.90;;;;;;5089472;28;20161;-61
2022/11/07 09:06:24;;;;;;;25.23;6.07;;;13.50;99.90;;;;;;5075119;28;20121;-61
2022/11/07 09:08:51;;;;;;;16.63;3.10;;;13.60;99.90;;;;;;5089234;28;20151;-60
2022/11/07 09:11:17;;;;;;;12.90;2.53;;;13.60;99.90;;;;;;5090492;28;20046;-61
2022/11/07 09:13:50;;;;;;;15.75;2.13;;;13.70;99.90;;;;;;5093278;28;20431;-61
2022/11/07 09:16:20;;;;;;;25.00;2.47;;;13.80;99.90;;;;;;5092718;28;20044;-61
2022/11/07 09:18:51;;;;;;;15.00;2.75;;;13.80;99.90;;;;;;5090542;28;20393;-60
2022/11/07 09:21:17;;;;;;;11.50;2.45;;;13.90;99.90;;;;;;5086155;28;20048;-61
2022/11/07 09:23:49;;;;;;;9.55;2.63;;;13.90;99.90;;;;;;5090281;28;20093;-61
2022/11/07 09:26:15;;;;;;;17.27;2.47;;;14.00;99.90;;;;;;5087370;28;20491;-60
2022/11/07 09:28:43;;;;;;;14.88;3.13;;;14.00;99.90;;;;;;5088758;28;20571;-61
2022/11/07 09:31:17;;;;;;;10.55;2.08;;;14.10;99.90;;;;;;5089270;28;20150;-61
2022/11/07 09:33:44;;;;;;;12.38;2.63;;;14.10;99.90;;;;;;5090174;28;20048;-61
2022/11/07 09:36:12;;;;;;;20.55;2.47;;;14.10;99.90;;;;;;5070978;28;20050;-61
2022/11/07 09:38:39;;;;;;;12.07;2.67;;;14.10;99.90;;;;;;5090216;28;20048;-61
2022/11/07 09:41:35;;;;;;;10.90;2.10;;;14.20;99.90;;;;;;5089044;28;20109;-62
2022/11/07 09:44:41;;;;;;;14.15;2.70;;;14.20;99.90;;;;;;5067915;28;20143;-61
2022/11/07 09:47:15;;;;;;;8.82;2.75;;;14.30;99.90;;;;;;5085072;28;20430;-61
2022/11/07 09:49:43;;;;;;;14.40;3.45;;;14.30;99.90;;;;;;5087953;28;20109;-60
2022/11/07 09:52:53;;;;;;;13.35;2.58;;;14.30;99.90;;;;;;5087125;28;20071;-61
2022/11/07 09:55:24;;;;;;;20.33;3.60;;;14.40;99.90;;;;;;5060601;28;20127;-61
2022/11/07 09:57:53;;;;;;;15.18;2.88;;;14.40;99.90;;;;;;5071251;28;20456;-60
2022/11/07 10:00:20;;;;;;;14.95;2.70;;;14.40;99.90;;;;;;5071209;28;20673;-59
2022/11/07 10:02:58;;;;;;;13.07;2.28;;;14.40;99.90;;;;;;5088268;28;20134;-59
2022/11/07 10:05:39;;;;;;;11.82;3.08;;;14.30;99.90;;;;;;5088714;28;20093;-60
2022/11/07 10:08:16;;;;;;;19.08;3.03;;;14.30;99.90;;;;;;5087902;28;20040;-60
2022/11/07 10:11:00;;;;;;;19.20;2.67;;;14.20;99.90;;;;;;5072423;28;20407;-60
2022/11/07 10:13:45;;;;;;;18.00;2.92;;;14.20;99.90;;;;;;5070793;28;20058;-59
2022/11/07 10:16:29;;;;;;;17.00;3.97;;;14.10;99.90;;;;;;5087403;28;20131;-60
2022/11/07 10:19:08;;;;;;;;;;;14.10;99.90;;;;;;5088285;28;20051;-61
2022/11/07 10:21:50;;;;;;;21.48;2.58;;;14.10;99.90;;;;;;5087519;28;20378;-61
2022/11/07 10:24:45;;;;;;;14.48;3.10;;;14.10;99.90;;;;;;5087444;28;20051;-61
2022/11/07 10:27:12;;;;;;;23.98;3.90;;;14.10;99.90;;;;;;5086918;28;20079;-60
2022/11/07 10:29:45;;;;;;;15.98;4.20;;;14.10;99.90;;;;;;5087153;28;20070;-61
2022/11/07 10:32:34;;;;;;;18.80;4.68;;;14.10;99.90;;;;;;5098525;28;20043;-61
2022/11/07 10:35:19;;;;;;;22.20;4.57;;;14.20;99.90;;;;;;5088349;28;20043;-60
2022/11/07 10:37:59;;;;;;;25.95;4.32;;;14.20;99.90;;;;;;5055510;28;20097;-61
2022/11/07 10:40:37;;;;;;;27.42;6.18;;;14.20;99.90;;;;;;5070894;28;20147;-62
2022/11/07 10:43:06;;;;;;;25.85;3.83;;;14.20;99.90;;;;;;5086853;28;20410;-61
2022/11/07 10:45:33;;;;;;;24.98;4.07;;;14.30;99.90;;;;;;5087645;28;20062;-61
2022/11/07 10:48:03;;;;;;;26.08;4.18;;;14.30;99.90;;;;;;5086885;28;20127;-61
2022/11/07 10:50:30;;;;;;;31.42;6.70;;;14.30;99.90;;;;;;5067040;28;20410;-61
2022/11/07 10:53:08;;;;;;;15.40;3.63;;;14.30;99.90;;;;;;5077544;28;20429;-61
2022/11/07 10:55:43;;;;;;;21.60;5.22;;;14.30;99.90;;;;;;5087601;28;20050;-62
2022/11/07 10:58:19;;;;;;;28.90;4.40;;;14.30;99.90;;;;;;5086696;28;20060;-61
2022/11/07 11:01:16;;;;;;;29.83;4.10;;;14.30;99.90;;;;;;5071153;28;20402;-61
2022/11/07 11:03:44;;;;;;;19.48;3.80;;;14.40;99.90;;;;;;5070327;28;20635;-61
2022/11/07 11:06:17;;;;;;;21.98;4.80;;;14.50;99.90;;;;;;5087796;28;20040;-61
2022/11/07 11:08:45;;;;;;;17.63;4.07;;;14.50;99.90;;;;;;5087967;28;20135;-60
2022/11/07 11:11:28;;;;;;;16.25;3.42;;;14.50;99.90;;;;;;5086994;28;20090;-60
2022/11/07 11:14:07;;;;;;;20.85;4.05;;;14.50;99.90;;;;;;5088302;28;20131;-60
2022/11/07 11:16:36;;;;;;;16.10;3.15;;;14.50;99.90;;;;;;5087440;28;20095;-60
2022/11/07 11:19:03;;;;;;;12.68;3.00;;;14.50;99.90;;;;;;5071867;28;20131;-60
2022/11/07 11:21:40;;;;;;;17.48;3.28;;;14.50;99.90;;;;;;5090898;28;20151;-61
2022/11/07 11:24:24;;;;;;;23.92;3.28;;;14.50;99.90;;;;;;5090587;28;20051;-60
2022/11/07 11:26:51;;;;;;;18.58;3.03;;;14.50;99.90;;;;;;5091223;28;20044;-60
2022/11/07 11:29:51;;;;;;;24.50;3.63;;;14.50;99.90;;;;;;5057602;28;20384;-60
2022/11/07 11:32:35;;;;;;;16.73;3.35;;;14.60;99.90;;;;;;5090812;28;20395;-60
2022/11/07 11:35:05;;;;;;;19.33;4.30;;;14.70;99.90;;;;;;5074935;28;20472;-60
2022/11/07 11:37:34;;;;;;;19.45;3.15;;;14.70;99.90;;;;;;5091210;28;20518;-60
2022/11/07 11:40:02;;;;;;;22.50;3.97;;;14.70;99.90;;;;;;5089915;28;20143;-59
2022/11/07 11:42:59;;;;;;;24.58;5.35;;;14.70;99.90;;;;;;5092533;28;20103;-59
2022/11/07 11:45:34;;;;;;;19.55;4.90;;;14.80;99.90;;;;;;5090785;28;20044;-60
2022/11/07 11:48:19;;;;;;;17.55;3.70;;;14.80;99.90;;;;;;5071563;28;20536;-61
2022/11/07 11:50:51;;;;;;;25.73;3.97;;;14.80;99.90;;;;;;5089762;28;20147;-61
2022/11/07 11:53:19;;;;;;;20.63;3.65;;;14.80;99.90;;;;;;5074125;28;20052;-60
2022/11/07 11:56:35;;;;;;;22.15;3.72;;;14.90;99.90;;;;;;5090526;28;20044;-60
2022/11/07 11:59:02;;;;;;;18.77;3.30;;;14.80;99.90;;;;;;5055714;28;20052;-60
2022/11/07 12:01:52;;;;;;;17.05;3.50;;;14.70;99.90;;;;;;5090910;28;20052;-61
2022/11/07 12:04:55;;;;;;;18.92;3.35;;;14.70;99.90;;;;;;5091235;28;20052;-60
2022/11/07 12:07:58;;;;;;;9.50;2.58;;;14.70;99.90;;;;;;5080100;28;20054;-61
2022/11/07 12:10:26;;;;;;;9.95;2.80;;;14.70;99.90;;;;;;5075559;28;20412;-59
2022/11/07 12:13:10;;;;;;;12.15;2.47;;;14.80;99.90;;;;;;5090576;28;20058;-60
2022/11/07 12:15:44;;;;;;;14.63;3.17;;;14.80;99.90;;;;;;5091138;28;20058;-62
2022/11/07 12:18:22;;;;;;;23.13;4.38;;;14.90;99.90;;;;;;5090082;28;20075;-60
2022/11/07 12:21:10;;;;;;;16.85;3.60;;;14.90;99.90;;;;;;5089704;28;20051;-60
2022/11/07 12:23:55;;;;;;;19.20;2.97;;;14.90;99.90;;;;;;5091408;28;20048;-60
2022/11/07 12:26:46;;;;;;;16.80;3.20;;;14.90;99.90;;;;;;5090780;28;20044;-61
2022/11/07 12:29:19;;;;;;;16.98;3.92;;;14.70;99.90;;;;;;5089430;28;20135;-61
2022/11/07 12:32:12;;;;;;;18.45;3.38;;;14.70;99.90;;;;;;5088835;28;20194;-60
2022/11/07 12:35:07;;;;;;;23.92;4.70;;;14.70;99.90;;;;;;5069764;28;20055;-60
2022/11/07 12:37:56;;;;;;;40.42;6.10;;;14.70;99.90;;;;;;5090457;28;20068;-60
2022/11/07 12:40:33;;;;;;;28.63;5.88;;;14.60;99.90;;;;;;5088767;28;20048;-62
2022/11/07 12:43:30;;;;;;;20.27;3.35;;;14.50;99.90;;;;;;5087482;28;20601;-61
2022/11/07 12:46:08;;;;;;;28.15;5.72;;;14.50;99.90;;;;;;5090137;28;20083;-60
2022/11/07 12:48:39;;;;;;;25.92;4.75;;;14.50;99.90;;;;;;5090826;28;20048;-61
2022/11/07 12:51:37;;;;;;;19.75;3.53;;;14.50;99.90;;;;;;5091374;28;20422;-61
2022/11/07 12:54:25;;;;;;;18.95;4.20;;;14.50;99.90;;;;;;5084103;28;20135;-61
2022/11/07 12:56:52;;;;;;;27.13;4.30;;;14.60;99.90;;;;;;5090311;28;20404;-60
2022/11/07 12:59:26;;;;;;;21.90;5.40;;;14.70;99.90;;;;;;5089806;28;20048;-62
2022/11/07 13:02:32;;;;;;;30.08;6.40;;;14.70;99.90;;;;;;5072697;28;20512;-60
2022/11/07 13:05:43;;;;;;;16.85;3.95;;;14.80;99.90;;;;;;5090942;28;20661;-60
2022/11/07 13:08:16;;;;;;;27.27;5.88;;;14.90;99.90;;;;;;5035746;28;20084;-61